Eugene, OR (97404)

6:47 AM PDT on October 23, 2014 (GMT -0700)
Santa Clara | Change Station
CLOSE
Current Station
Personal Weather Station
Location: Eugene, OR
Elevation: 406 ft
Nearby Weather Stations
Active Advisory: Special Statement Active Notice: Record Report

Elev 406 ft 44.11 °N, 123.15 °W | Updated 1 second ago

Overcast
Overcast
56.6 °F
Feels Like 56.6 °F
N
0.0
Wind Variable Wind from South
Gusts 0.0 mph

Today
High -- | Low -- °F
--% Chance of Precip.
Yesterday
High -- | Low -- °F
Precip. -- in
7:37 AM 6:15 PM
Waning Crescent, 0% visible
Pressure 29.80 in
Visibility 10.0 miles
Clouds Mostly Cloudy 2700 ft
Mostly Cloudy 3500 ft
Overcast 10000 ft
Dew Point 52 °F
Humidity 84%
Rainfall 0.00 in
Snow Depth Not available.
UV 0 out of 12
Pollen .30 out of 12
PM2.5 Good
Flu Activity Sporadic
METAR KEUG 231254Z 17008KT 10SM BKN027 BKN035 OVC100 14/12 A2980 RMK AO2 SLP090 T01440117

More Conditions Fewer Conditions

Pressure 29.80 in
Visibility 10.0 miles
Clouds Mostly Cloudy 2700 ft
Mostly Cloudy 3500 ft
Overcast 10000 ft
Dew Point 52 °F
Humidity 84%
Rainfall 0.00 in
Snow Depth Not available.
UV 0 out of 12
Pollen .30 out of 12
PM2.5 Good
Flu Activity Sporadic
METAR KEUG 231254Z 17008KT 10SM BKN027 BKN035 OVC100 14/12 A2980 RMK AO2 SLP090 T01440117

More Conditions Fewer Conditions

10-Day Weather Forecast

Almanac

Astronomy

Oct. 23, 2014 Rise Set
Actual Time 7:37 AM PDT 6:15 PM PDT
Civil Twilight 7:07 AM PDT 6:44 PM PDT
Nautical Twilight 6:34 AM PDT 7:18 PM PDT
Astronomical Twilight 6:00 AM PDT 7:52 PM PDT
Moon 7:22 AM PDT 6:20 PM PDT
Length of Visible Light 11h 36m
Length of Day
10h 37m
Tomorrow will be 2m 50s shorter.
Waning Crescent, 0% of the Moon is Illuminated
Today
Waning Crescent
Oct 23
New
Oct 30
First Quarter
Nov 6
Full
Nov 14
Last Quarter

Today's Extremes

State Highs State Lows

Community

WunderPhotos

Upload Photos

1,764,238 photos uploaded!

Nearby

Air Quality

  Air Quality AQ Index Pollutant
Yesterday Good
PM2.5
Current Good
PM2.5
Thursday Good
PM2.5

Snow Depth

Station Depth Elevation
Holland Meadows 0 in 4900 ft
Jump Off Joe 0 in 3500 ft
Roaring River 0 in 4900 ft
Irish Taylor 0 in 5500 ft
Mckenzie 0 in 4800 ft

Earthquake Activity

City Distance Mag. Time & Date
No recent earthquake activity has been reported nearby.
Minimum magnitude displayed is 2.5.

Coastal Water Temperatures

Place Temperature
No Stations Reporting

Nearby Weather Stations